sensor_id;sensor_type;location;lat;lon;timestamp;P1;durP1;ratioP1;P2;durP2;ratioP2
54259;SDS011;40172;53.022;7.012;2023-06-10T00:00:24;14.52;;;5.10;;
54259;SDS011;40172;53.022;7.012;2023-06-10T00:02:49;11.45;;;5.32;;
54259;SDS011;40172;53.022;7.012;2023-06-10T00:05:15;7.68;;;5.03;;
54259;SDS011;40172;53.022;7.012;2023-06-10T00:07:41;11.20;;;5.30;;
54259;SDS011;40172;53.022;7.012;2023-06-10T00:10:07;7.78;;;5.13;;
54259;SDS011;40172;53.022;7.012;2023-06-10T00:12:33;9.88;;;5.05;;
54259;SDS011;40172;53.022;7.012;2023-06-10T00:15:02;10.07;;;5.18;;
54259;SDS011;40172;53.022;7.012;2023-06-10T00:17:29;10.40;;;5.00;;
54259;SDS011;40172;53.022;7.012;2023-06-10T00:19:55;9.32;;;5.65;;
54259;SDS011;40172;53.022;7.012;2023-06-10T00:22:21;17.10;;;5.40;;
54259;SDS011;40172;53.022;7.012;2023-06-10T00:24:47;9.65;;;5.30;;
54259;SDS011;40172;53.022;7.012;2023-06-10T00:27:13;11.55;;;5.47;;
54259;SDS011;40172;53.022;7.012;2023-06-10T00:29:39;12.25;;;4.93;;
54259;SDS011;40172;53.022;7.012;2023-06-10T00:32:04;8.15;;;5.13;;
54259;SDS011;40172;53.022;7.012;2023-06-10T00:34:30;12.38;;;5.60;;
54259;SDS011;40172;53.022;7.012;2023-06-10T00:36:57;12.63;;;5.10;;
54259;SDS011;40172;53.022;7.012;2023-06-10T00:39:22;11.50;;;5.45;;
54259;SDS011;40172;53.022;7.012;2023-06-10T00:41:48;13.98;;;5.35;;
54259;SDS011;40172;53.022;7.012;2023-06-10T00:44:15;9.52;;;5.38;;
54259;SDS011;40172;53.022;7.012;2023-06-10T00:46:41;12.48;;;5.43;;
54259;SDS011;40172;53.022;7.012;2023-06-10T00:49:07;11.90;;;5.00;;
54259;SDS011;40172;53.022;7.012;2023-06-10T00:51:33;10.52;;;5.78;;
54259;SDS011;40172;53.022;7.012;2023-06-10T00:54:00;10.90;;;5.20;;
54259;SDS011;40172;53.022;7.012;2023-06-10T00:56:25;12.05;;;5.75;;
54259;SDS011;40172;53.022;7.012;2023-06-10T00:58:53;10.90;;;5.25;;
54259;SDS011;40172;53.022;7.012;2023-06-10T01:01:19;12.00;;;5.28;;
54259;SDS011;40172;53.022;7.012;2023-06-10T01:03:45;14.77;;;5.25;;
54259;SDS011;40172;53.022;7.012;2023-06-10T01:06:19;10.00;;;5.55;;
54259;SDS011;40172;53.022;7.012;2023-06-10T01:09:03;15.40;;;5.68;;
54259;SDS011;40172;53.022;7.012;2023-06-10T01:11:43;11.13;;;5.68;;
54259;SDS011;40172;53.022;7.012;2023-06-10T01:14:15;10.52;;;5.75;;
54259;SDS011;40172;53.022;7.012;2023-06-10T01:16:41;9.32;;;5.18;;
54259;SDS011;40172;53.022;7.012;2023-06-10T01:19:07;9.77;;;5.40;;
54259;SDS011;40172;53.022;7.012;2023-06-10T01:21:33;9.70;;;5.10;;
54259;SDS011;40172;53.022;7.012;2023-06-10T01:23:58;12.85;;;6.93;;
54259;SDS011;40172;53.022;7.012;2023-06-10T01:26:31;12.20;;;5.85;;
54259;SDS011;40172;53.022;7.012;2023-06-10T01:29:01;14.35;;;5.47;;
54259;SDS011;40172;53.022;7.012;2023-06-10T01:31:38;12.50;;;5.38;;
54259;SDS011;40172;53.022;7.012;2023-06-10T01:34:07;13.68;;;5.63;;
54259;SDS011;40172;53.022;7.012;2023-06-10T01:36:35;16.65;;;5.60;;
54259;SDS011;40172;53.022;7.012;2023-06-10T01:39:02;13.43;;;5.43;;
54259;SDS011;40172;53.022;7.012;2023-06-10T01:41:29;13.23;;;6.38;;
54259;SDS011;40172;53.022;7.012;2023-06-10T01:43:56;13.77;;;5.65;;
54259;SDS011;40172;53.022;7.012;2023-06-10T01:46:21;9.75;;;5.22;;
54259;SDS011;40172;53.022;7.012;2023-06-10T01:48:47;9.02;;;4.90;;
54259;SDS011;40172;53.022;7.012;2023-06-10T01:51:13;11.82;;;5.53;;
54259;SDS011;40172;53.022;7.012;2023-06-10T01:53:39;11.20;;;5.13;;
54259;SDS011;40172;53.022;7.012;2023-06-10T01:56:05;13.05;;;5.93;;
54259;SDS011;40172;53.022;7.012;2023-06-10T01:58:30;14.82;;;5.75;;
54259;SDS011;40172;53.022;7.012;2023-06-10T02:00:56;9.25;;;5.68;;
54259;SDS011;40172;53.022;7.012;2023-06-10T02:03:21;11.13;;;5.18;;
54259;SDS011;40172;53.022;7.012;2023-06-10T02:05:47;12.88;;;5.82;;
54259;SDS011;40172;53.022;7.012;2023-06-10T02:08:12;11.60;;;5.28;;
54259;SDS011;40172;53.022;7.012;2023-06-10T02:10:38;12.95;;;5.57;;
54259;SDS011;40172;53.022;7.012;2023-06-10T02:13:04;10.73;;;5.60;;
54259;SDS011;40172;53.022;7.012;2023-06-10T02:15:30;12.55;;;5.43;;
54259;SDS011;40172;53.022;7.012;2023-06-10T02:17:55;12.07;;;5.82;;
54259;SDS011;40172;53.022;7.012;2023-06-10T02:20:21;10.57;;;6.00;;
54259;SDS011;40172;53.022;7.012;2023-06-10T02:22:47;10.88;;;5.72;;
54259;SDS011;40172;53.022;7.012;2023-06-10T02:25:12;11.60;;;5.70;;
54259;SDS011;40172;53.022;7.012;2023-06-10T02:27:38;11.77;;;6.38;;
54259;SDS011;40172;53.022;7.012;2023-06-10T02:30:05;10.63;;;5.72;;
54259;SDS011;40172;53.022;7.012;2023-06-10T02:32:31;14.15;;;6.60;;
54259;SDS011;40172;53.022;7.012;2023-06-10T02:34:56;12.38;;;5.50;;
54259;SDS011;40172;53.022;7.012;2023-06-10T02:37:22;9.30;;;6.00;;
54259;SDS011;40172;53.022;7.012;2023-06-10T02:39:48;12.23;;;5.82;;
54259;SDS011;40172;53.022;7.012;2023-06-10T02:42:14;13.85;;;6.00;;
54259;SDS011;40172;53.022;7.012;2023-06-10T02:44:39;11.60;;;6.13;;
54259;SDS011;40172;53.022;7.012;2023-06-10T02:47:05;11.60;;;6.57;;
54259;SDS011;40172;53.022;7.012;2023-06-10T02:49:31;12.02;;;6.10;;
54259;SDS011;40172;53.022;7.012;2023-06-10T02:51:56;12.38;;;6.50;;
54259;SDS011;40172;53.022;7.012;2023-06-10T02:54:22;16.33;;;6.65;;
54259;SDS011;40172;53.022;7.012;2023-06-10T02:56:49;15.25;;;6.45;;
54259;SDS011;40172;53.022;7.012;2023-06-10T02:59:16;14.98;;;6.43;;
54259;SDS011;40172;53.022;7.012;2023-06-10T03:01:42;10.70;;;6.20;;
54259;SDS011;40172;53.022;7.012;2023-06-10T03:04:07;13.27;;;6.25;;
54259;SDS011;40172;53.022;7.012;2023-06-10T03:06:33;15.13;;;6.72;;
54259;SDS011;40172;53.022;7.012;2023-06-10T03:09:00;15.63;;;6.40;;
54259;SDS011;40172;53.022;7.012;2023-06-10T03:11:29;12.23;;;6.60;;
54259;SDS011;40172;53.022;7.012;2023-06-10T03:13:54;13.68;;;6.65;;
54259;SDS011;40172;53.022;7.012;2023-06-10T03:16:21;12.75;;;6.60;;
54259;SDS011;40172;53.022;7.012;2023-06-10T03:18:47;14.02;;;6.75;;
54259;SDS011;40172;53.022;7.012;2023-06-10T03:21:13;15.27;;;6.43;;
54259;SDS011;40172;53.022;7.012;2023-06-10T03:23:39;14.02;;;6.78;;
54259;SDS011;40172;53.022;7.012;2023-06-10T03:26:05;17.63;;;7.05;;
54259;SDS011;40172;53.022;7.012;2023-06-10T03:28:30;11.70;;;6.57;;
54259;SDS011;40172;53.022;7.012;2023-06-10T03:30:56;15.75;;;7.13;;
54259;SDS011;40172;53.022;7.012;2023-06-10T03:33:22;13.32;;;6.90;;
54259;SDS011;40172;53.022;7.012;2023-06-10T03:35:48;13.90;;;6.45;;
54259;SDS011;40172;53.022;7.012;2023-06-10T03:38:13;13.75;;;6.50;;
54259;SDS011;40172;53.022;7.012;2023-06-10T03:40:39;14.93;;;7.15;;
54259;SDS011;40172;53.022;7.012;2023-06-10T03:43:05;19.48;;;7.50;;
54259;SDS011;40172;53.022;7.012;2023-06-10T03:45:30;15.77;;;7.05;;
54259;SDS011;40172;53.022;7.012;2023-06-10T03:47:57;21.08;;;7.47;;
54259;SDS011;40172;53.022;7.012;2023-06-10T03:50:23;17.70;;;7.13;;
54259;SDS011;40172;53.022;7.012;2023-06-10T03:52:49;14.07;;;6.70;;
54259;SDS011;40172;53.022;7.012;2023-06-10T03:55:15;13.55;;;7.10;;
54259;SDS011;40172;53.022;7.012;2023-06-10T03:57:42;14.57;;;6.82;;
54259;SDS011;40172;53.022;7.012;2023-06-10T04:00:08;13.43;;;7.05;;
54259;SDS011;40172;53.022;7.012;2023-06-10T04:02:37;14.00;;;7.43;;
54259;SDS011;40172;53.022;7.012;2023-06-10T04:05:11;13.48;;;7.07;;
54259;SDS011;40172;53.022;7.012;2023-06-10T04:07:37;14.85;;;7.20;;
54259;SDS011;40172;53.022;7.012;2023-06-10T04:10:06;15.90;;;8.20;;
54259;SDS011;40172;53.022;7.012;2023-06-10T04:12:32;16.17;;;7.75;;
54259;SDS011;40172;53.022;7.012;2023-06-10T04:14:57;19.80;;;8.07;;
54259;SDS011;40172;53.022;7.012;2023-06-10T04:17:23;13.77;;;7.57;;
54259;SDS011;40172;53.022;7.012;2023-06-10T04:19:49;15.43;;;7.93;;
54259;SDS011;40172;53.022;7.012;2023-06-10T04:22:15;22.55;;;8.73;;
54259;SDS011;40172;53.022;7.012;2023-06-10T04:24:41;17.33;;;8.75;;
54259;SDS011;40172;53.022;7.012;2023-06-10T04:27:07;17.95;;;8.30;;
54259;SDS011;40172;53.022;7.012;2023-06-10T04:29:33;16.50;;;7.70;;
54259;SDS011;40172;53.022;7.012;2023-06-10T04:31:59;15.73;;;8.18;;
54259;SDS011;40172;53.022;7.012;2023-06-10T04:34:26;17.40;;;8.23;;
54259;SDS011;40172;53.022;7.012;2023-06-10T04:36:52;16.88;;;8.13;;
54259;SDS011;40172;53.022;7.012;2023-06-10T04:39:18;22.63;;;8.52;;
54259;SDS011;40172;53.022;7.012;2023-06-10T04:41:44;14.82;;;7.97;;
54259;SDS011;40172;53.022;7.012;2023-06-10T04:44:11;17.23;;;8.35;;
54259;SDS011;40172;53.022;7.012;2023-06-10T04:46:36;20.05;;;7.80;;
54259;SDS011;40172;53.022;7.012;2023-06-10T04:49:02;18.48;;;7.80;;
54259;SDS011;40172;53.022;7.012;2023-06-10T04:51:28;19.27;;;8.27;;
54259;SDS011;40172;53.022;7.012;2023-06-10T04:53:54;14.63;;;7.47;;
54259;SDS011;40172;53.022;7.012;2023-06-10T04:56:19;18.45;;;8.15;;
54259;SDS011;40172;53.022;7.012;2023-06-10T04:58:45;16.13;;;8.07;;
54259;SDS011;40172;53.022;7.012;2023-06-10T05:01:10;18.58;;;7.75;;
54259;SDS011;40172;53.022;7.012;2023-06-10T05:03:36;17.80;;;7.55;;
54259;SDS011;40172;53.022;7.012;2023-06-10T05:06:02;19.23;;;8.15;;
54259;SDS011;40172;53.022;7.012;2023-06-10T05:08:27;19.02;;;7.35;;
54259;SDS011;40172;53.022;7.012;2023-06-10T05:10:53;15.73;;;7.38;;
54259;SDS011;40172;53.022;7.012;2023-06-10T05:13:18;17.83;;;7.97;;
54259;SDS011;40172;53.022;7.012;2023-06-10T05:15:44;16.52;;;7.53;;
54259;SDS011;40172;53.022;7.012;2023-06-10T05:18:10;12.27;;;6.85;;
54259;SDS011;40172;53.022;7.012;2023-06-10T05:20:37;15.60;;;7.60;;
54259;SDS011;40172;53.022;7.012;2023-06-10T05:23:03;16.85;;;7.85;;
54259;SDS011;40172;53.022;7.012;2023-06-10T05:25:32;20.48;;;7.72;;
54259;SDS011;40172;53.022;7.012;2023-06-10T05:27:58;22.15;;;7.97;;
54259;SDS011;40172;53.022;7.012;2023-06-10T05:30:24;16.95;;;7.82;;
54259;SDS011;40172;53.022;7.012;2023-06-10T05:32:50;14.77;;;7.38;;
54259;SDS011;40172;53.022;7.012;2023-06-10T05:35:17;19.77;;;8.07;;
54259;SDS011;40172;53.022;7.012;2023-06-10T05:37:42;16.02;;;7.57;;
54259;SDS011;40172;53.022;7.012;2023-06-10T05:40:08;18.08;;;8.00;;
54259;SDS011;40172;53.022;7.012;2023-06-10T05:42:34;15.45;;;8.32;;
54259;SDS011;40172;53.022;7.012;2023-06-10T05:45:00;16.92;;;8.85;;
54259;SDS011;40172;53.022;7.012;2023-06-10T05:47:27;16.85;;;8.65;;
54259;SDS011;40172;53.022;7.012;2023-06-10T05:49:52;17.35;;;9.02;;
54259;SDS011;40172;53.022;7.012;2023-06-10T05:52:18;16.80;;;9.00;;
54259;SDS011;40172;53.022;7.012;2023-06-10T05:54:44;18.98;;;9.25;;
54259;SDS011;40172;53.022;7.012;2023-06-10T05:57:09;17.20;;;9.80;;
54259;SDS011;40172;53.022;7.012;2023-06-10T05:59:35;16.88;;;9.30;;
54259;SDS011;40172;53.022;7.012;2023-06-10T06:02:01;16.60;;;8.82;;
54259;SDS011;40172;53.022;7.012;2023-06-10T06:04:26;16.45;;;8.70;;
54259;SDS011;40172;53.022;7.012;2023-06-10T06:06:52;20.15;;;9.10;;
54259;SDS011;40172;53.022;7.012;2023-06-10T06:09:17;19.20;;;9.40;;
54259;SDS011;40172;53.022;7.012;2023-06-10T06:11:43;19.48;;;9.38;;
54259;SDS011;40172;53.022;7.012;2023-06-10T06:14:09;17.55;;;8.98;;
54259;SDS011;40172;53.022;7.012;2023-06-10T06:16:35;13.70;;;8.77;;
54259;SDS011;40172;53.022;7.012;2023-06-10T06:19:00;17.75;;;8.77;;
54259;SDS011;40172;53.022;7.012;2023-06-10T06:21:26;12.32;;;8.15;;
54259;SDS011;40172;53.022;7.012;2023-06-10T06:23:51;15.05;;;8.27;;
54259;SDS011;40172;53.022;7.012;2023-06-10T06:26:17;19.63;;;8.77;;
54259;SDS011;40172;53.022;7.012;2023-06-10T06:28:42;17.77;;;8.98;;
54259;SDS011;40172;53.022;7.012;2023-06-10T06:31:08;16.60;;;8.23;;
54259;SDS011;40172;53.022;7.012;2023-06-10T06:33:34;14.32;;;8.27;;
54259;SDS011;40172;53.022;7.012;2023-06-10T06:35:59;16.55;;;7.70;;
54259;SDS011;40172;53.022;7.012;2023-06-10T06:38:27;13.43;;;7.70;;
54259;SDS011;40172;53.022;7.012;2023-06-10T06:40:53;12.75;;;7.60;;
54259;SDS011;40172;53.022;7.012;2023-06-10T06:43:19;15.27;;;7.60;;
54259;SDS011;40172;53.022;7.012;2023-06-10T06:45:44;14.90;;;7.38;;
54259;SDS011;40172;53.022;7.012;2023-06-10T06:48:11;12.50;;;6.97;;
54259;SDS011;40172;53.022;7.012;2023-06-10T06:50:37;12.98;;;6.90;;
54259;SDS011;40172;53.022;7.012;2023-06-10T06:53:03;12.75;;;7.30;;
54259;SDS011;40172;53.022;7.012;2023-06-10T06:55:29;13.75;;;7.03;;
54259;SDS011;40172;53.022;7.012;2023-06-10T06:57:55;13.73;;;6.65;;
54259;SDS011;40172;53.022;7.012;2023-06-10T07:00:21;18.00;;;7.18;;
54259;SDS011;40172;53.022;7.012;2023-06-10T07:02:47;12.85;;;7.22;;
54259;SDS011;40172;53.022;7.012;2023-06-10T07:05:13;10.85;;;6.35;;
54259;SDS011;40172;53.022;7.012;2023-06-10T07:07:38;12.68;;;6.78;;
54259;SDS011;40172;53.022;7.012;2023-06-10T07:10:04;11.15;;;6.60;;
54259;SDS011;40172;53.022;7.012;2023-06-10T07:12:30;15.50;;;6.80;;
54259;SDS011;40172;53.022;7.012;2023-06-10T07:14:55;16.08;;;5.88;;
54259;SDS011;40172;53.022;7.012;2023-06-10T07:17:21;11.93;;;6.30;;
54259;SDS011;40172;53.022;7.012;2023-06-10T07:19:47;12.85;;;6.45;;
54259;SDS011;40172;53.022;7.012;2023-06-10T07:22:13;11.15;;;6.25;;
54259;SDS011;40172;53.022;7.012;2023-06-10T07:24:39;14.70;;;6.63;;
54259;SDS011;40172;53.022;7.012;2023-06-10T07:27:05;15.05;;;6.90;;
54259;SDS011;40172;53.022;7.012;2023-06-10T07:29:32;12.27;;;6.15;;
54259;SDS011;40172;53.022;7.012;2023-06-10T07:31:57;13.90;;;6.32;;
54259;SDS011;40172;53.022;7.012;2023-06-10T07:34:23;15.00;;;8.30;;
54259;SDS011;40172;53.022;7.012;2023-06-10T07:36:49;19.90;;;6.50;;
54259;SDS011;40172;53.022;7.012;2023-06-10T07:39:14;13.35;;;6.60;;
54259;SDS011;40172;53.022;7.012;2023-06-10T07:41:40;10.63;;;5.95;;
54259;SDS011;40172;53.022;7.012;2023-06-10T07:44:05;14.10;;;8.43;;
54259;SDS011;40172;53.022;7.012;2023-06-10T07:46:31;11.10;;;5.65;;
54259;SDS011;40172;53.022;7.012;2023-06-10T07:48:56;11.13;;;6.18;;
54259;SDS011;40172;53.022;7.012;2023-06-10T07:51:22;12.15;;;6.03;;
54259;SDS011;40172;53.022;7.012;2023-06-10T07:53:48;13.23;;;6.13;;
54259;SDS011;40172;53.022;7.012;2023-06-10T07:56:13;9.57;;;5.50;;
54259;SDS011;40172;53.022;7.012;2023-06-10T07:58:39;10.25;;;5.43;;
54259;SDS011;40172;53.022;7.012;2023-06-10T08:01:05;10.55;;;5.60;;
54259;SDS011;40172;53.022;7.012;2023-06-10T08:03:30;10.63;;;5.65;;
54259;SDS011;40172;53.022;7.012;2023-06-10T08:05:56;13.02;;;5.30;;
54259;SDS011;40172;53.022;7.012;2023-06-10T08:08:21;17.60;;;5.68;;
54259;SDS011;40172;53.022;7.012;2023-06-10T08:10:47;12.60;;;5.32;;
54259;SDS011;40172;53.022;7.012;2023-06-10T08:13:14;10.40;;;4.80;;
54259;SDS011;40172;53.022;7.012;2023-06-10T08:15:40;15.18;;;5.68;;
54259;SDS011;40172;53.022;7.012;2023-06-10T08:18:05;10.70;;;4.65;;
54259;SDS011;40172;53.022;7.012;2023-06-10T08:20:31;12.48;;;5.25;;
54259;SDS011;40172;53.022;7.012;2023-06-10T08:22:57;10.52;;;5.03;;
54259;SDS011;40172;53.022;7.012;2023-06-10T08:25:23;13.60;;;5.35;;
54259;SDS011;40172;53.022;7.012;2023-06-10T08:27:49;12.68;;;5.05;;
54259;SDS011;40172;53.022;7.012;2023-06-10T08:30:15;8.77;;;4.80;;
54259;SDS011;40172;53.022;7.012;2023-06-10T08:32:41;8.25;;;4.85;;
54259;SDS011;40172;53.022;7.012;2023-06-10T08:35:07;10.30;;;4.90;;
54259;SDS011;40172;53.022;7.012;2023-06-10T08:37:33;10.05;;;4.80;;
54259;SDS011;40172;53.022;7.012;2023-06-10T08:39:58;13.00;;;5.00;;
54259;SDS011;40172;53.022;7.012;2023-06-10T08:42:35;11.27;;;4.90;;
54259;SDS011;40172;53.022;7.012;2023-06-10T08:45:08;10.85;;;4.65;;
54259;SDS011;40172;53.022;7.012;2023-06-10T08:47:38;9.73;;;4.40;;
54259;SDS011;40172;53.022;7.012;2023-06-10T08:50:06;11.23;;;4.65;;
54259;SDS011;40172;53.022;7.012;2023-06-10T08:52:36;11.18;;;4.78;;
54259;SDS011;40172;53.022;7.012;2023-06-10T08:57:37;10.02;;;4.50;;
54259;SDS011;40172;53.022;7.012;2023-06-10T09:00:03;13.32;;;4.65;;
54259;SDS011;40172;53.022;7.012;2023-06-10T09:02:31;10.07;;;4.28;;
54259;SDS011;40172;53.022;7.012;2023-06-10T09:05:00;10.68;;;4.95;;
54259;SDS011;40172;53.022;7.012;2023-06-10T09:07:26;13.80;;;4.55;;
54259;SDS011;40172;53.022;7.012;2023-06-10T09:09:52;10.88;;;4.05;;
54259;SDS011;40172;53.022;7.012;2023-06-10T09:12:19;12.98;;;5.30;;
54259;SDS011;40172;53.022;7.012;2023-06-10T09:14:45;9.07;;;4.60;;
54259;SDS011;40172;53.022;7.012;2023-06-10T09:17:10;8.77;;;4.53;;
54259;SDS011;40172;53.022;7.012;2023-06-10T09:19:36;11.80;;;4.28;;
54259;SDS011;40172;53.022;7.012;2023-06-10T09:22:05;12.30;;;4.55;;
54259;SDS011;40172;53.022;7.012;2023-06-10T09:24:30;14.60;;;4.00;;
54259;SDS011;40172;53.022;7.012;2023-06-10T09:27:04;7.55;;;4.20;;
54259;SDS011;40172;53.022;7.012;2023-06-10T09:29:46;14.27;;;4.60;;
54259;SDS011;40172;53.022;7.012;2023-06-10T09:32:17;12.52;;;4.57;;
54259;SDS011;40172;53.022;7.012;2023-06-10T09:34:43;9.05;;;3.72;;
54259;SDS011;40172;53.022;7.012;2023-06-10T09:37:09;8.23;;;3.92;;
54259;SDS011;40172;53.022;7.012;2023-06-10T09:39:37;9.35;;;4.10;;
54259;SDS011;40172;53.022;7.012;2023-06-10T09:42:24;8.88;;;4.25;;
54259;SDS011;40172;53.022;7.012;2023-06-10T09:44:52;8.98;;;3.70;;
54259;SDS011;40172;53.022;7.012;2023-06-10T09:47:21;7.85;;;3.92;;
54259;SDS011;40172;53.022;7.012;2023-06-10T09:49:48;10.30;;;4.30;;
54259;SDS011;40172;53.022;7.012;2023-06-10T09:52:14;7.38;;;3.58;;
54259;SDS011;40172;53.022;7.012;2023-06-10T09:54:47;9.00;;;4.50;;
54259;SDS011;40172;53.022;7.012;2023-06-10T09:57:13;11.23;;;4.18;;
54259;SDS011;40172;53.022;7.012;2023-06-10T09:59:39;12.98;;;3.70;;
54259;SDS011;40172;53.022;7.012;2023-06-10T10:02:06;9.50;;;3.97;;
54259;SDS011;40172;53.022;7.012;2023-06-10T10:04:31;10.70;;;3.60;;
54259;SDS011;40172;53.022;7.012;2023-06-10T10:06:59;9.75;;;3.67;;
54259;SDS011;40172;53.022;7.012;2023-06-10T10:09:25;7.88;;;3.92;;
54259;SDS011;40172;53.022;7.012;2023-06-10T10:11:50;11.95;;;4.30;;
54259;SDS011;40172;53.022;7.012;2023-06-10T10:14:18;6.53;;;3.78;;
54259;SDS011;40172;53.022;7.012;2023-06-10T10:16:45;7.30;;;3.80;;
54259;SDS011;40172;53.022;7.012;2023-06-10T10:22:10;9.30;;;4.00;;
54259;SDS011;40172;53.022;7.012;2023-06-10T10:24:42;9.50;;;3.80;;
54259;SDS011;40172;53.022;7.012;2023-06-10T10:27:17;7.88;;;3.67;;
54259;SDS011;40172;53.022;7.012;2023-06-10T10:29:46;10.02;;;3.75;;
54259;SDS011;40172;53.022;7.012;2023-06-10T10:32:15;6.72;;;3.35;;
54259;SDS011;40172;53.022;7.012;2023-06-10T10:34:49;10.15;;;3.17;;
54259;SDS011;40172;53.022;7.012;2023-06-10T10:37:22;7.05;;;3.20;;
54259;SDS011;40172;53.022;7.012;2023-06-10T10:39:49;6.97;;;3.50;;
54259;SDS011;40172;53.022;7.012;2023-06-10T10:42:15;10.90;;;3.10;;
54259;SDS011;40172;53.022;7.012;2023-06-10T10:44:42;10.05;;;3.42;;
54259;SDS011;40172;53.022;7.012;2023-06-10T10:47:08;8.02;;;3.60;;
54259;SDS011;40172;53.022;7.012;2023-06-10T10:49:35;9.65;;;3.85;;
54259;SDS011;40172;53.022;7.012;2023-06-10T10:52:02;6.53;;;3.08;;
54259;SDS011;40172;53.022;7.012;2023-06-10T10:54:35;9.23;;;3.30;;
54259;SDS011;40172;53.022;7.012;2023-06-10T10:59:51;9.00;;;3.15;;
54259;SDS011;40172;53.022;7.012;2023-06-10T11:05:13;9.70;;;3.17;;
54259;SDS011;40172;53.022;7.012;2023-06-10T11:07:40;7.72;;;3.08;;
54259;SDS011;40172;53.022;7.012;2023-06-10T11:10:16;8.77;;;3.13;;
54259;SDS011;40172;53.022;7.012;2023-06-10T11:15:10;14.52;;;3.40;;
54259;SDS011;40172;53.022;7.012;2023-06-10T11:18:06;8.55;;;3.00;;
54259;SDS011;40172;53.022;7.012;2023-06-10T11:21:08;5.22;;;2.50;;
54259;SDS011;40172;53.022;7.012;2023-06-10T11:26:13;8.57;;;3.05;;
54259;SDS011;40172;53.022;7.012;2023-06-10T11:31:08;9.23;;;2.80;;
54259;SDS011;40172;53.022;7.012;2023-06-10T11:33:43;7.63;;;2.80;;
54259;SDS011;40172;53.022;7.012;2023-06-10T11:36:09;5.72;;;2.80;;
54259;SDS011;40172;53.022;7.012;2023-06-10T11:38:35;7.80;;;3.22;;
54259;SDS011;40172;53.022;7.012;2023-06-10T11:41:01;6.28;;;2.90;;
54259;SDS011;40172;53.022;7.012;2023-06-10T11:43:27;9.18;;;2.85;;
54259;SDS011;40172;53.022;7.012;2023-06-10T11:45:54;8.88;;;2.97;;
54259;SDS011;40172;53.022;7.012;2023-06-10T11:48:23;8.10;;;2.95;;
54259;SDS011;40172;53.022;7.012;2023-06-10T11:50:48;4.85;;;2.80;;
54259;SDS011;40172;53.022;7.012;2023-06-10T11:53:14;9.50;;;2.97;;
54259;SDS011;40172;53.022;7.012;2023-06-10T11:58:16;5.00;;;2.72;;
54259;SDS011;40172;53.022;7.012;2023-06-10T12:00:49;18.52;;;3.60;;
54259;SDS011;40172;53.022;7.012;2023-06-10T12:03:16;5.80;;;3.00;;
54259;SDS011;40172;53.022;7.012;2023-06-10T12:05:59;5.63;;;2.72;;
54259;SDS011;40172;53.022;7.012;2023-06-10T12:08:26;9.93;;;3.40;;
54259;SDS011;40172;53.022;7.012;2023-06-10T12:10:52;6.30;;;2.70;;
54259;SDS011;40172;53.022;7.012;2023-06-10T12:13:19;10.15;;;2.95;;
54259;SDS011;40172;53.022;7.012;2023-06-10T12:15:44;6.85;;;3.00;;
54259;SDS011;40172;53.022;7.012;2023-06-10T12:18:21;5.50;;;2.67;;
54259;SDS011;40172;53.022;7.012;2023-06-10T12:20:48;5.72;;;2.97;;
54259;SDS011;40172;53.022;7.012;2023-06-10T12:23:15;11.10;;;3.05;;
54259;SDS011;40172;53.022;7.012;2023-06-10T12:25:51;7.72;;;3.00;;
54259;SDS011;40172;53.022;7.012;2023-06-10T12:28:21;6.97;;;2.80;;
54259;SDS011;40172;53.022;7.012;2023-06-10T12:30:48;7.63;;;2.90;;
54259;SDS011;40172;53.022;7.012;2023-06-10T12:33:17;8.13;;;3.40;;
54259;SDS011;40172;53.022;7.012;2023-06-10T12:35:49;8.00;;;2.92;;
54259;SDS011;40172;53.022;7.012;2023-06-10T12:38:23;9.93;;;3.88;;
54259;SDS011;40172;53.022;7.012;2023-06-10T12:40:49;10.63;;;2.88;;
54259;SDS011;40172;53.022;7.012;2023-06-10T12:43:19;9.65;;;3.30;;
54259;SDS011;40172;53.022;7.012;2023-06-10T12:45:46;5.22;;;3.00;;
54259;SDS011;40172;53.022;7.012;2023-06-10T12:48:16;8.85;;;3.20;;
54259;SDS011;40172;53.022;7.012;2023-06-10T12:50:43;10.45;;;3.10;;
54259;SDS011;40172;53.022;7.012;2023-06-10T12:53:09;7.18;;;2.75;;
54259;SDS011;40172;53.022;7.012;2023-06-10T12:55:36;7.68;;;3.28;;
54259;SDS011;40172;53.022;7.012;2023-06-10T12:58:03;8.60;;;3.20;;
54259;SDS011;40172;53.022;7.012;2023-06-10T13:00:29;12.55;;;2.90;;
54259;SDS011;40172;53.022;7.012;2023-06-10T13:02:59;7.80;;;3.10;;
54259;SDS011;40172;53.022;7.012;2023-06-10T13:05:26;9.00;;;2.92;;
54259;SDS011;40172;53.022;7.012;2023-06-10T13:07:51;10.77;;;3.10;;
54259;SDS011;40172;53.022;7.012;2023-06-10T13:10:17;7.10;;;3.00;;
54259;SDS011;40172;53.022;7.012;2023-06-10T13:12:43;8.52;;;3.20;;
54259;SDS011;40172;53.022;7.012;2023-06-10T13:15:09;6.18;;;3.00;;
54259;SDS011;40172;53.022;7.012;2023-06-10T13:17:35;7.78;;;2.72;;
54259;SDS011;40172;53.022;7.012;2023-06-10T13:20:02;9.30;;;2.72;;
54259;SDS011;40172;53.022;7.012;2023-06-10T13:22:30;6.07;;;2.80;;
54259;SDS011;40172;53.022;7.012;2023-06-10T13:25:06;8.10;;;2.70;;
54259;SDS011;40172;53.022;7.012;2023-06-10T13:27:33;8.65;;;3.08;;
54259;SDS011;40172;53.022;7.012;2023-06-10T13:30:04;6.72;;;2.55;;
54259;SDS011;40172;53.022;7.012;2023-06-10T13:32:31;7.38;;;2.92;;
54259;SDS011;40172;53.022;7.012;2023-06-10T13:34:56;6.43;;;3.05;;
54259;SDS011;40172;53.022;7.012;2023-06-10T13:37:22;7.00;;;2.70;;
54259;SDS011;40172;53.022;7.012;2023-06-10T13:39:48;5.88;;;3.10;;
54259;SDS011;40172;53.022;7.012;2023-06-10T13:42:16;8.10;;;3.00;;
54259;SDS011;40172;53.022;7.012;2023-06-10T13:44:44;8.80;;;3.20;;
54259;SDS011;40172;53.022;7.012;2023-06-10T13:47:09;7.25;;;3.13;;
54259;SDS011;40172;53.022;7.012;2023-06-10T13:49:35;7.40;;;3.08;;
54259;SDS011;40172;53.022;7.012;2023-06-10T13:52:01;8.77;;;3.08;;
54259;SDS011;40172;53.022;7.012;2023-06-10T13:54:27;6.50;;;3.15;;
54259;SDS011;40172;53.022;7.012;2023-06-10T13:56:53;6.65;;;3.05;;
54259;SDS011;40172;53.022;7.012;2023-06-10T13:59:19;9.98;;;2.80;;
54259;SDS011;40172;53.022;7.012;2023-06-10T14:01:45;5.95;;;2.78;;
54259;SDS011;40172;53.022;7.012;2023-06-10T14:04:11;6.82;;;2.60;;
54259;SDS011;40172;53.022;7.012;2023-06-10T14:06:37;10.10;;;2.67;;
54259;SDS011;40172;53.022;7.012;2023-06-10T14:09:03;9.20;;;2.58;;
54259;SDS011;40172;53.022;7.012;2023-06-10T14:11:29;6.00;;;2.70;;
54259;SDS011;40172;53.022;7.012;2023-06-10T14:13:58;6.95;;;2.80;;
54259;SDS011;40172;53.022;7.012;2023-06-10T14:16:23;7.63;;;2.97;;
54259;SDS011;40172;53.022;7.012;2023-06-10T14:18:49;8.43;;;3.00;;
54259;SDS011;40172;53.022;7.012;2023-06-10T14:21:18;6.28;;;2.30;;
54259;SDS011;40172;53.022;7.012;2023-06-10T14:23:44;5.65;;;2.60;;
54259;SDS011;40172;53.022;7.012;2023-06-10T14:26:10;7.22;;;2.55;;
54259;SDS011;40172;53.022;7.012;2023-06-10T14:28:36;6.97;;;2.20;;
54259;SDS011;40172;53.022;7.012;2023-06-10T14:31:01;4.43;;;2.35;;
54259;SDS011;40172;53.022;7.012;2023-06-10T14:33:27;5.13;;;2.50;;
54259;SDS011;40172;53.022;7.012;2023-06-10T14:35:53;6.57;;;2.35;;
54259;SDS011;40172;53.022;7.012;2023-06-10T14:38:19;5.97;;;2.25;;
54259;SDS011;40172;53.022;7.012;2023-06-10T14:40:44;5.07;;;2.35;;
54259;SDS011;40172;53.022;7.012;2023-06-10T14:43:10;4.45;;;2.38;;
54259;SDS011;40172;53.022;7.012;2023-06-10T14:45:36;6.32;;;2.63;;
54259;SDS011;40172;53.022;7.012;2023-06-10T14:48:03;6.38;;;2.42;;
54259;SDS011;40172;53.022;7.012;2023-06-10T14:50:29;7.20;;;2.60;;
54259;SDS011;40172;53.022;7.012;2023-06-10T14:52:55;8.95;;;2.63;;
54259;SDS011;40172;53.022;7.012;2023-06-10T14:55:20;5.22;;;2.22;;
54259;SDS011;40172;53.022;7.012;2023-06-10T14:57:47;7.75;;;2.60;;